Time;durP1;ratioP1;P1;durP2;ratioP2;P2;SDS_P1;SDS_P2;PMS_P1;PMS_P2;Temp;Humidity;BMP_temperature;BMP_pressure;BME280_temperature;BME280_humidity;BME280_pressure;Samples;Min_cycle;Max_cycle;Signal;HPM_P1;HPM_P2
2023/12/15 00:01:25;;;;;;;34.67;13.20;;;;;;;;;;5036563;28;20041;-66
2023/12/15 00:03:50;;;;;;;36.07;13.43;;;;;;;;;;5032791;28;20061;-66
2023/12/15 00:06:15;;;;;;;34.53;13.60;;;;;;;;;;5031169;28;20582;-66
2023/12/15 00:08:41;;;;;;;35.87;14.53;;;;;;;;;;5036374;28;20470;-66
2023/12/15 00:11:06;;;;;;;33.83;13.43;;;;;;;;;;5031246;28;20934;-66
2023/12/15 00:13:32;;;;;;;37.70;13.80;;;;;;;;;;5037501;28;20492;-66
2023/12/15 00:15:57;;;;;;;38.03;13.97;;;;;;;;;;5034275;28;20079;-65
2023/12/15 00:18:22;;;;;;;35.43;13.60;;;;;;;;;;5033853;28;20366;-65
2023/12/15 00:20:48;;;;;;;36.37;13.60;;;;;;;;;;5033036;28;20132;-66
2023/12/15 00:23:13;;;;;;;36.60;14.17;;;;;;;;;;5031505;28;20092;-65
2023/12/15 00:25:39;;;;;;;36.57;13.83;;;;;;;;;;5036561;28;20090;-66
2023/12/15 00:28:04;;;;;;;32.43;13.50;;;;;;;;;;5034511;28;20160;-65
2023/12/15 00:30:29;;;;;;;33.77;13.50;;;;;;;;;;5031926;28;20030;-65
2023/12/15 00:32:54;;;;;;;34.07;12.77;;;;;;;;;;5034958;28;20029;-65
2023/12/15 00:35:20;;;;;;;38.87;14.27;;;;;;;;;;5028768;28;20037;-65
2023/12/15 00:37:45;;;;;;;32.40;12.87;;;;;;;;;;5032892;28;20414;-66
2023/12/15 00:40:10;;;;;;;33.40;13.67;;;;;;;;;;5034849;28;20128;-66
2023/12/15 00:42:36;;;;;;;37.83;14.20;;;;;;;;;;5030804;28;20041;-65
2023/12/15 00:45:01;;;;;;;39.43;13.80;;;;;;;;;;5036169;28;20043;-65
2023/12/15 00:47:26;;;;;;;37.97;13.73;;;;;;;;;;5032755;28;20029;-65
2023/12/15 00:49:52;;;;;;;36.93;13.73;;;;;;;;;;5032023;28;20028;-65
2023/12/15 00:52:17;;;;;;;34.20;13.40;;;;;;;;;;5033641;28;20029;-65
2023/12/15 00:54:43;;;;;;;39.33;13.83;;;;;;;;;;5037884;28;20044;-65
2023/12/15 00:57:08;;;;;;;32.50;13.40;;;;;;;;;;5039070;28;20090;-65
2023/12/15 00:59:33;;;;;;;35.30;14.13;;;;;;;;;;5033817;28;20035;-65
2023/12/15 01:01:59;;;;;;;36.30;14.63;;;;;;;;;;5031356;28;20429;-65
2023/12/15 01:04:24;;;;;;;42.73;15.23;;;;;;;;;;5033000;28;20063;-65
2023/12/15 01:06:49;;;;;;;36.60;14.33;;;;;;;;;;5033127;28;20379;-65
2023/12/15 01:09:14;;;;;;;37.37;14.93;;;;;;;;;;5033416;28;20038;-65
2023/12/15 01:11:40;;;;;;;39.13;14.87;;;;;;;;;;5038443;28;20032;-65
2023/12/15 01:14:08;;;;;;;42.20;15.13;;;;;;;;;;5025625;28;20057;-65
2023/12/15 01:16:33;;;;;;;37.33;14.63;;;;;;;;;;5038706;28;20099;-65
2023/12/15 01:18:58;;;;;;;39.03;13.97;;;;;;;;;;5035999;28;20638;-65
2023/12/15 01:21:24;;;;;;;39.47;14.87;;;;;;;;;;5031100;28;20036;-65
2023/12/15 01:23:49;;;;;;;42.60;15.07;;;;;;;;;;5028846;28;21651;-65
2023/12/15 01:26:15;;;;;;;38.83;15.00;;;;;;;;;;5031709;28;20033;-65
2023/12/15 01:28:40;;;;;;;39.27;13.90;;;;;;;;;;5030688;28;20029;-65
2023/12/15 01:31:05;;;;;;;41.70;15.47;;;;;;;;;;5031551;28;20523;-65
2023/12/15 01:33:32;;;;;;;40.67;15.33;;;;;;;;;;5029457;28;20120;-65
2023/12/15 01:35:57;;;;;;;40.33;15.83;;;;;;;;;;5030861;28;20129;-65
2023/12/15 01:38:22;;;;;;;42.77;16.50;;;;;;;;;;5030556;28;20435;-65
2023/12/15 01:40:48;;;;;;;38.43;14.50;;;;;;;;;;5034317;28;20084;-65
2023/12/15 01:43:13;;;;;;;37.93;14.60;;;;;;;;;;5032753;28;20029;-65
2023/12/15 01:45:38;;;;;;;36.03;14.87;;;;;;;;;;5026982;28;20034;-65
2023/12/15 01:48:04;;;;;;;37.93;15.13;;;;;;;;;;5034482;28;20029;-65
2023/12/15 01:50:29;;;;;;;40.10;14.47;;;;;;;;;;5032650;28;20033;-65
2023/12/15 01:52:54;;;;;;;42.63;14.97;;;;;;;;;;5031418;28;20064;-65
2023/12/15 01:55:20;;;;;;;40.53;15.00;;;;;;;;;;5037394;28;20029;-65
2023/12/15 01:57:45;;;;;;;41.27;15.20;;;;;;;;;;5032496;28;20025;-65
2023/12/15 02:00:11;;;;;;;43.60;17.17;;;;;;;;;;5033362;28;20044;-65
2023/12/15 02:02:36;;;;;;;45.00;16.20;;;;;;;;;;5040262;28;20041;-65
2023/12/15 02:05:04;;;;;;;37.87;15.50;;;;;;;;;;5037463;28;20110;-65
2023/12/15 02:07:30;;;;;;;43.20;15.13;;;;;;;;;;5039309;28;20452;-65
2023/12/15 02:09:55;;;;;;;43.80;16.83;;;;;;;;;;5037478;28;20063;-65
2023/12/15 02:12:21;;;;;;;41.00;15.87;;;;;;;;;;5035892;28;20030;-64
2023/12/15 02:14:46;;;;;;;38.67;15.33;;;;;;;;;;5038545;28;20047;-65
2023/12/15 02:17:12;;;;;;;46.30;16.60;;;;;;;;;;5030242;28;20069;-64
2023/12/15 02:19:37;;;;;;;45.93;16.07;;;;;;;;;;5038542;28;20112;-65
2023/12/15 02:22:03;;;;;;;45.77;17.07;;;;;;;;;;5022557;28;20040;-65
2023/12/15 02:24:28;;;;;;;44.13;16.30;;;;;;;;;;5036334;28;20029;-63
2023/12/15 02:26:54;;;;;;;47.73;17.07;;;;;;;;;;5040692;28;20041;-64
2023/12/15 02:29:19;;;;;;;45.93;17.07;;;;;;;;;;5029906;28;20493;-64
2023/12/15 02:31:44;;;;;;;48.00;16.87;;;;;;;;;;5034657;28;20087;-66
2023/12/15 02:34:10;;;;;;;42.33;15.40;;;;;;;;;;5036180;28;20038;-65
2023/12/15 02:36:35;;;;;;;47.77;17.30;;;;;;;;;;5037324;28;20031;-64
2023/12/15 02:39:02;;;;;;;42.37;15.73;;;;;;;;;;5033898;28;20037;-62
2023/12/15 02:41:28;;;;;;;51.87;17.40;;;;;;;;;;5034299;28;20025;-64
2023/12/15 02:43:54;;;;;;;50.07;17.83;;;;;;;;;;5032699;28;20488;-63
2023/12/15 02:46:19;;;;;;;41.10;15.47;;;;;;;;;;5033561;28;20552;-62
2023/12/15 02:48:44;;;;;;;46.73;17.33;;;;;;;;;;5036045;28;20057;-65
2023/12/15 02:51:10;;;;;;;47.27;17.07;;;;;;;;;;5035481;28;20028;-63
2023/12/15 02:53:36;;;;;;;48.50;17.40;;;;;;;;;;5032770;28;20036;-61
2023/12/15 02:56:01;;;;;;;46.90;17.00;;;;;;;;;;5034152;28;20029;-63
2023/12/15 02:58:27;;;;;;;47.20;16.50;;;;;;;;;;5036066;28;20040;-63
2023/12/15 03:00:52;;;;;;;49.17;17.63;;;;;;;;;;5036242;28;20040;-63
2023/12/15 03:03:17;;;;;;;49.90;18.57;;;;;;;;;;5034306;28;20033;-63
2023/12/15 03:05:43;;;;;;;53.87;19.27;;;;;;;;;;5031776;28;20586;-62
2023/12/15 03:08:08;;;;;;;54.37;17.60;;;;;;;;;;5033125;28;20090;-62
2023/12/15 03:10:33;;;;;;;49.20;18.00;;;;;;;;;;5035861;28;20124;-64
2023/12/15 03:12:59;;;;;;;54.53;18.10;;;;;;;;;;5031591;28;20024;-64
2023/12/15 03:15:26;;;;;;;52.20;18.47;;;;;;;;;;5031731;28;20041;-63
2023/12/15 03:17:51;;;;;;;56.33;18.53;;;;;;;;;;5038876;28;20510;-63
2023/12/15 03:20:16;;;;;;;42.73;14.67;;;;;;;;;;5031827;28;20033;-64
2023/12/15 03:22:41;;;;;;;55.20;19.30;;;;;;;;;;5036263;28;20036;-62
2023/12/15 03:25:07;;;;;;;54.73;19.67;;;;;;;;;;5034754;28;20068;-64
2023/12/15 03:27:32;;;;;;;52.43;18.80;;;;;;;;;;5034460;28;20065;-64
2023/12/15 03:29:57;;;;;;;51.53;19.80;;;;;;;;;;5036265;28;20087;-64
2023/12/15 03:32:23;;;;;;;59.77;19.63;;;;;;;;;;5034929;28;20036;-65
2023/12/15 03:34:48;;;;;;;53.77;17.73;;;;;;;;;;5038049;28;20039;-64
2023/12/15 03:37:14;;;;;;;52.13;18.40;;;;;;;;;;5034496;28;20029;-64
2023/12/15 03:39:39;;;;;;;56.60;19.67;;;;;;;;;;5029642;28;20672;-64
2023/12/15 03:42:06;;;;;;;56.73;18.57;;;;;;;;;;5033271;28;20588;-64
2023/12/15 03:44:32;;;;;;;59.23;19.27;;;;;;;;;;5033460;28;20033;-63
2023/12/15 03:46:57;;;;;;;53.73;17.57;;;;;;;;;;5038049;28;20528;-64
2023/12/15 03:49:22;;;;;;;59.93;19.73;;;;;;;;;;5032208;28;20025;-65
2023/12/15 03:51:47;;;;;;;60.50;19.20;;;;;;;;;;5029010;28;20044;-65
2023/12/15 03:54:13;;;;;;;62.30;20.10;;;;;;;;;;5035187;28;20033;-64
2023/12/15 03:56:38;;;;;;;61.37;19.73;;;;;;;;;;5034766;28;20528;-65
2023/12/15 03:59:03;;;;;;;64.23;20.37;;;;;;;;;;5033988;28;20297;-63
2023/12/15 04:01:29;;;;;;;59.00;18.80;;;;;;;;;;5035199;28;20037;-64
2023/12/15 04:03:56;;;;;;;60.93;19.10;;;;;;;;;;5034817;28;20071;-63
2023/12/15 04:06:21;;;;;;;58.77;18.80;;;;;;;;;;5036782;28;20059;-63
2023/12/15 04:08:46;;;;;;;57.17;18.90;;;;;;;;;;5036567;28;20120;-66
2023/12/15 04:11:11;;;;;;;60.97;19.23;;;;;;;;;;5035193;28;20021;-64
2023/12/15 04:13:37;;;;;;;71.37;22.30;;;;;;;;;;5037946;28;20461;-65
2023/12/15 04:16:03;;;;;;;69.57;21.90;;;;;;;;;;5035727;28;20049;-65
2023/12/15 04:18:28;;;;;;;71.57;20.60;;;;;;;;;;5035655;28;20603;-64
2023/12/15 04:20:53;;;;;;;67.60;21.03;;;;;;;;;;5035365;28;20025;-62
2023/12/15 04:23:19;;;;;;;63.83;20.70;;;;;;;;;;5036560;28;20037;-64
2023/12/15 04:25:44;;;;;;;70.87;21.40;;;;;;;;;;5034473;28;20068;-64
2023/12/15 04:28:09;;;;;;;73.60;19.87;;;;;;;;;;5032511;28;20046;-63
2023/12/15 04:30:34;;;;;;;73.23;21.47;;;;;;;;;;5036320;28;20289;-65
2023/12/15 04:33:01;;;;;;;64.53;20.87;;;;;;;;;;5035234;28;20029;-65
2023/12/15 04:35:26;;;;;;;62.87;21.53;;;;;;;;;;5028594;28;20485;-65
2023/12/15 04:37:51;;;;;;;72.83;22.13;;;;;;;;;;5032857;28;20091;-65
2023/12/15 04:40:16;;;;;;;74.53;22.60;;;;;;;;;;5033940;28;20076;-65
2023/12/15 04:42:42;;;;;;;71.37;20.87;;;;;;;;;;5034694;28;20498;-66
2023/12/15 04:45:10;;;;;;;74.37;21.90;;;;;;;;;;5021245;28;20474;-65
2023/12/15 04:47:35;;;;;;;73.87;22.57;;;;;;;;;;5026320;28;20029;-65
2023/12/15 04:50:01;;;;;;;67.50;22.17;;;;;;;;;;5030641;28;20034;-65
2023/12/15 04:52:27;;;;;;;78.70;22.33;;;;;;;;;;5034354;28;20041;-66
2023/12/15 04:54:52;;;;;;;67.47;21.50;;;;;;;;;;5035202;28;20047;-65
2023/12/15 04:57:17;;;;;;;67.50;20.57;;;;;;;;;;5032310;28;20033;-65
2023/12/15 04:59:43;;;;;;;71.07;22.07;;;;;;;;;;5029560;28;20026;-65
2023/12/15 05:02:08;;;;;;;68.73;20.60;;;;;;;;;;5033912;28;20033;-65
2023/12/15 05:04:34;;;;;;;77.73;21.87;;;;;;;;;;5037049;28;20040;-65
2023/12/15 05:06:59;;;;;;;75.60;23.90;;;;;;;;;;5034133;28;20064;-65
2023/12/15 05:09:24;;;;;;;74.73;22.00;;;;;;;;;;5033962;28;20356;-65
2023/12/15 05:11:49;;;;;;;81.43;23.67;;;;;;;;;;5037518;28;20029;-65
2023/12/15 05:14:15;;;;;;;75.63;21.80;;;;;;;;;;5037225;28;20013;-65
2023/12/15 05:16:40;;;;;;;86.03;22.60;;;;;;;;;;5036246;28;20048;-65
2023/12/15 05:19:05;;;;;;;87.23;23.73;;;;;;;;;;5034256;28;20030;-65
2023/12/15 05:21:30;;;;;;;92.40;25.00;;;;;;;;;;5033693;28;20044;-65
2023/12/15 05:23:58;;;;;;;81.23;23.23;;;;;;;;;;5033357;28;20067;-65
2023/12/15 05:26:24;;;;;;;80.93;23.80;;;;;;;;;;5036540;28;20117;-65
2023/12/15 05:28:49;;;;;;;84.13;22.87;;;;;;;;;;5033720;28;20075;-65
2023/12/15 05:31:15;;;;;;;82.83;24.33;;;;;;;;;;5034711;28;20033;-65
2023/12/15 05:33:41;;;;;;;74.87;22.13;;;;;;;;;;5034564;28;20385;-66
2023/12/15 05:36:06;;;;;;;85.80;25.27;;;;;;;;;;5034099;28;20262;-65
2023/12/15 05:38:32;;;;;;;87.70;24.33;;;;;;;;;;5036744;28;20128;-65
2023/12/15 05:40:57;;;;;;;82.00;24.80;;;;;;;;;;5034944;28;20390;-65
2023/12/15 05:43:22;;;;;;;96.77;25.33;;;;;;;;;;5037821;28;20061;-64
2023/12/15 05:45:47;;;;;;;82.73;23.93;;;;;;;;;;5035029;28;20032;-64
2023/12/15 05:48:12;;;;;;;79.27;23.37;;;;;;;;;;5039188;28;20596;-65
2023/12/15 05:50:38;;;;;;;94.53;24.63;;;;;;;;;;5035057;28;20033;-65
2023/12/15 05:53:03;;;;;;;93.97;24.90;;;;;;;;;;5038854;28;20084;-64
2023/12/15 05:55:28;;;;;;;85.83;24.03;;;;;;;;;;5031835;28;20076;-63
2023/12/15 05:57:53;;;;;;;89.43;24.43;;;;;;;;;;5032362;28;20037;-63
2023/12/15 06:00:19;;;;;;;91.13;23.47;;;;;;;;;;5029908;28;20032;-64
2023/12/15 06:02:44;;;;;;;87.83;25.10;;;;;;;;;;5037604;28;20037;-64
2023/12/15 06:05:09;;;;;;;90.23;23.97;;;;;;;;;;5041114;28;20380;-64
2023/12/15 06:07:35;;;;;;;95.77;25.93;;;;;;;;;;5032264;28;20409;-63
2023/12/15 06:10:00;;;;;;;87.73;24.93;;;;;;;;;;5038124;28;20033;-64
2023/12/15 06:12:25;;;;;;;92.83;25.33;;;;;;;;;;5040738;28;20390;-64
2023/12/15 06:14:51;;;;;;;108.27;26.53;;;;;;;;;;5039805;28;20053;-64
2023/12/15 06:17:16;;;;;;;97.87;26.47;;;;;;;;;;5040532;28;20052;-64
2023/12/15 06:19:43;;;;;;;96.70;27.13;;;;;;;;;;5035969;28;20061;-64
2023/12/15 06:22:08;;;;;;;92.87;25.10;;;;;;;;;;5037914;28;20068;-65
2023/12/15 06:24:33;;;;;;;98.63;25.93;;;;;;;;;;5034751;28;20044;-63
2023/12/15 06:26:58;;;;;;;107.07;25.23;;;;;;;;;;5035856;28;20040;-63
2023/12/15 06:29:23;;;;;;;91.03;25.73;;;;;;;;;;5035615;28;20029;-63
2023/12/15 06:31:49;;;;;;;97.97;26.90;;;;;;;;;;5037079;28;20603;-63
2023/12/15 06:34:14;;;;;;;93.63;24.63;;;;;;;;;;5035688;28;20029;-63
2023/12/15 06:36:39;;;;;;;92.97;26.50;;;;;;;;;;5036610;28;20116;-63
2023/12/15 06:39:05;;;;;;;91.80;25.33;;;;;;;;;;5037160;28;20199;-63
2023/12/15 06:41:30;;;;;;;97.87;25.63;;;;;;;;;;5038919;28;20533;-63
2023/12/15 06:43:55;;;;;;;91.50;24.27;;;;;;;;;;5032511;28;20061;-64
2023/12/15 06:46:21;;;;;;;98.23;26.00;;;;;;;;;;5031198;28;20029;-63
2023/12/15 06:48:46;;;;;;;91.13;25.43;;;;;;;;;;5032014;28;20450;-63
2023/12/15 06:51:11;;;;;;;93.37;25.70;;;;;;;;;;5037066;28;20393;-63
2023/12/15 06:53:37;;;;;;;85.47;24.33;;;;;;;;;;5032899;28;20117;-64
2023/12/15 06:56:02;;;;;;;95.63;25.17;;;;;;;;;;5032468;28;20221;-64
2023/12/15 06:58:27;;;;;;;87.63;24.53;;;;;;;;;;5030570;28;20379;-65
2023/12/15 07:00:53;;;;;;;92.20;25.07;;;;;;;;;;5037298;28;20383;-65
2023/12/15 07:03:18;;;;;;;101.67;26.67;;;;;;;;;;5036120;28;20033;-66
2023/12/15 07:05:44;;;;;;;90.90;25.93;;;;;;;;;;5028029;28;20259;-65
2023/12/15 07:08:09;;;;;;;104.90;24.47;;;;;;;;;;5028149;28;20078;-65
2023/12/15 07:10:34;;;;;;;85.47;24.00;;;;;;;;;;5035791;28;20037;-65
2023/12/15 07:12:59;;;;;;;89.73;23.83;;;;;;;;;;5033890;28;20312;-64
2023/12/15 07:15:29;;;;;;;90.90;23.67;;;;;;;;;;5036944;28;20033;-65
2023/12/15 07:17:54;;;;;;;91.40;24.73;;;;;;;;;;5032648;28;20037;-64
2023/12/15 07:20:20;;;;;;;91.17;23.60;;;;;;;;;;5036780;28;20033;-65
2023/12/15 07:22:46;;;;;;;93.67;24.23;;;;;;;;;;5032812;28;20037;-65
2023/12/15 07:25:11;;;;;;;86.70;23.80;;;;;;;;;;5036085;28;20033;-64
2023/12/15 07:27:36;;;;;;;96.70;25.53;;;;;;;;;;5034229;28;20045;-66
2023/12/15 07:30:02;;;;;;;86.27;22.23;;;;;;;;;;5035772;28;20037;-65
2023/12/15 07:32:27;;;;;;;89.77;23.47;;;;;;;;;;5038303;28;20025;-65
2023/12/15 07:34:52;;;;;;;84.53;22.13;;;;;;;;;;5035095;28;20151;-65
2023/12/15 07:37:18;;;;;;;94.90;24.00;;;;;;;;;;5036038;28;20033;-64
2023/12/15 07:39:43;;;;;;;78.53;20.97;;;;;;;;;;5036046;28;20037;-65
2023/12/15 07:42:09;;;;;;;95.47;22.53;;;;;;;;;;5034182;28;20112;-65
2023/12/15 07:44:34;;;;;;;94.17;22.97;;;;;;;;;;5033605;28;20119;-64
2023/12/15 07:46:59;;;;;;;80.50;20.13;;;;;;;;;;5036220;28;20033;-65
2023/12/15 07:49:25;;;;;;;91.10;22.50;;;;;;;;;;5035872;28;20504;-64
2023/12/15 07:51:51;;;;;;;87.00;21.30;;;;;;;;;;5031591;28;20398;-64
2023/12/15 07:54:16;;;;;;;98.97;22.00;;;;;;;;;;5030630;28;20079;-65
2023/12/15 07:56:41;;;;;;;92.37;21.93;;;;;;;;;;5031234;28;20029;-64
2023/12/15 07:59:07;;;;;;;86.80;23.23;;;;;;;;;;5032941;28;20033;-64
2023/12/15 08:01:33;;;;;;;91.27;22.83;;;;;;;;;;5036414;28;20036;-64
2023/12/15 08:03:58;;;;;;;97.00;20.77;;;;;;;;;;5031021;28;20394;-64
2023/12/15 08:06:24;;;;;;;80.73;19.80;;;;;;;;;;5036821;28;20054;-64
2023/12/15 08:08:51;;;;;;;86.83;20.93;;;;;;;;;;5035060;28;20032;-65
2023/12/15 08:11:16;;;;;;;91.23;20.93;;;;;;;;;;5036234;28;20112;-63
2023/12/15 08:13:42;;;;;;;87.53;22.07;;;;;;;;;;5028714;28;20332;-64
2023/12/15 08:16:07;;;;;;;87.33;20.57;;;;;;;;;;5028438;28;20052;-64
2023/12/15 08:18:33;;;;;;;93.37;21.67;;;;;;;;;;5035086;28;20721;-64
2023/12/15 08:20:59;;;;;;;82.20;19.87;;;;;;;;;;5033137;28;20039;-65
2023/12/15 08:23:25;;;;;;;83.77;19.73;;;;;;;;;;5038176;28;20052;-65
2023/12/15 08:25:50;;;;;;;77.53;19.90;;;;;;;;;;5018601;28;20037;-66
2023/12/15 08:28:16;;;;;;;89.90;20.33;;;;;;;;;;5035280;28;20071;-65
2023/12/15 08:30:41;;;;;;;81.83;18.63;;;;;;;;;;5033337;28;20029;-66
2023/12/15 08:33:06;;;;;;;90.80;21.57;;;;;;;;;;5035690;28;20025;-64
2023/12/15 08:35:32;;;;;;;87.27;21.00;;;;;;;;;;5031172;28;20033;-65
2023/12/15 08:37:57;;;;;;;86.00;21.60;;;;;;;;;;5034474;28;20038;-64
2023/12/15 08:40:23;;;;;;;80.53;20.10;;;;;;;;;;5034381;28;20028;-64
2023/12/15 08:42:49;;;;;;;85.30;20.30;;;;;;;;;;5031659;28;20029;-64
2023/12/15 08:45:14;;;;;;;75.40;19.53;;;;;;;;;;5031853;28;20025;-66
2023/12/15 08:47:39;;;;;;;87.13;20.13;;;;;;;;;;5032412;28;20076;-66
2023/12/15 08:50:05;;;;;;;85.43;20.07;;;;;;;;;;5031043;28;20039;-66
2023/12/15 08:52:30;;;;;;;88.47;20.20;;;;;;;;;;5032989;28;20018;-65
2023/12/15 08:54:55;;;;;;;83.83;21.27;;;;;;;;;;5029866;28;20030;-64
2023/12/15 08:57:21;;;;;;;77.13;17.73;;;;;;;;;;5032961;28;20040;-65
2023/12/15 08:59:46;;;;;;;84.93;19.97;;;;;;;;;;5034109;28;20068;-64
2023/12/15 09:02:12;;;;;;;85.73;19.37;;;;;;;;;;5027180;28;20112;-66
2023/12/15 09:04:37;;;;;;;86.43;20.53;;;;;;;;;;5030115;28;20049;-64
2023/12/15 09:07:02;;;;;;;87.70;19.43;;;;;;;;;;5027776;28;20592;-65
2023/12/15 09:09:28;;;;;;;87.03;20.70;;;;;;;;;;5034535;28;20017;-64
2023/12/15 09:11:53;;;;;;;81.93;19.80;;;;;;;;;;5028424;28;20034;-65
2023/12/15 09:14:21;;;;;;;74.43;19.20;;;;;;;;;;5030974;28;20033;-65
2023/12/15 09:16:47;;;;;;;78.60;20.13;;;;;;;;;;5034842;28;20053;-65
2023/12/15 09:19:12;;;;;;;84.33;20.50;;;;;;;;;;5032566;28;20355;-65
2023/12/15 09:21:40;;;;;;;78.07;19.30;;;;;;;;;;5034802;28;20045;-64
2023/12/15 09:27:08;;;;;;;73.97;19.13;;;;;;;;;;5034128;28;20559;-66
2023/12/15 09:29:35;;;;;;;82.37;17.83;;;;;;;;;;5034191;28;20028;-64
2023/12/15 09:32:01;;;;;;;67.57;18.10;;;;;;;;;;5034967;28;20029;-66
2023/12/15 09:34:27;;;;;;;65.50;18.20;;;;;;;;;;5029294;28;20021;-68
2023/12/15 09:36:52;;;;;;;66.43;15.80;;;;;;;;;;5032324;28;20068;-66
2023/12/15 09:39:17;;;;;;;71.30;17.97;;;;;;;;;;5033447;28;20124;-66
2023/12/15 09:41:43;;;;;;;57.33;15.30;;;;;;;;;;5033302;28;20700;-66
2023/12/15 09:44:08;;;;;;;66.13;17.13;;;;;;;;;;5034043;28;20338;-66
2023/12/15 09:46:34;;;;;;;70.93;16.93;;;;;;;;;;5032528;28;20048;-66
2023/12/15 09:49:01;;;;;;;64.73;15.90;;;;;;;;;;5031500;28;20033;-66
2023/12/15 09:51:27;;;;;;;58.53;15.83;;;;;;;;;;5030947;28;20448;-66
2023/12/15 09:53:53;;;;;;;56.40;15.73;;;;;;;;;;5030370;28;20029;-66
2023/12/15 09:56:18;;;;;;;62.93;16.07;;;;;;;;;;5032271;28;20032;-66
2023/12/15 09:58:44;;;;;;;54.23;15.50;;;;;;;;;;5028546;28;20044;-67
2023/12/15 10:01:12;;;;;;;51.10;14.27;;;;;;;;;;5032803;28;20041;-64
2023/12/15 10:03:38;;;;;;;50.40;14.77;;;;;;;;;;5030524;28;20021;-64
2023/12/15 10:06:03;;;;;;;57.17;16.40;;;;;;;;;;5032264;28;20127;-64
2023/12/15 10:08:41;;;;;;;57.77;16.13;;;;;;;;;;5033099;28;20029;-64
2023/12/15 10:11:07;;;;;;;55.17;15.37;;;;;;;;;;5030957;28;20501;-64
2023/12/15 10:13:32;;;;;;;56.70;15.17;;;;;;;;;;5030785;28;20095;-64
2023/12/15 10:15:58;;;;;;;49.83;15.17;;;;;;;;;;5031049;28;20053;-64
2023/12/15 10:18:23;;;;;;;55.43;16.40;;;;;;;;;;5034079;28;20092;-64
2023/12/15 10:20:49;;;;;;;51.33;14.43;;;;;;;;;;5029925;28;20521;-64
2023/12/15 10:23:14;;;;;;;50.60;15.33;;;;;;;;;;5032926;28;20091;-66
2023/12/15 10:25:47;;;;;;;46.50;12.70;;;;;;;;;;5040135;28;20048;-65
2023/12/15 10:28:12;;;;;;;55.23;14.30;;;;;;;;;;5035609;28;20041;-65
2023/12/15 10:30:38;;;;;;;54.80;14.33;;;;;;;;;;5033369;28;20026;-64
2023/12/15 10:33:03;;;;;;;57.40;14.93;;;;;;;;;;5029235;28;20038;-64
2023/12/15 10:35:29;;;;;;;60.33;14.80;;;;;;;;;;5039106;28;20029;-65
2023/12/15 10:37:55;;;;;;;50.00;15.53;;;;;;;;;;5035166;28;20064;-64
2023/12/15 10:40:28;;;;;;;52.30;14.33;;;;;;;;;;5039232;28;20041;-65
2023/12/15 10:42:53;;;;;;;51.13;15.17;;;;;;;;;;5034425;28;20060;-64
2023/12/15 10:45:19;;;;;;;48.43;14.20;;;;;;;;;;5036414;28;20060;-64
2023/12/15 10:47:45;;;;;;;58.00;14.67;;;;;;;;;;5035579;28;20037;-64
2023/12/15 10:50:10;;;;;;;62.67;16.17;;;;;;;;;;5033932;28;20021;-64
2023/12/15 10:52:36;;;;;;;39.30;13.10;;;;;;;;;;5036735;28;20095;-66
2023/12/15 10:55:03;;;;;;;50.00;14.40;;;;;;;;;;5035203;28;20375;-64
2023/12/15 10:57:30;;;;;;;42.83;13.93;;;;;;;;;;5033012;28;20029;-65
2023/12/15 10:59:55;;;;;;;50.20;13.77;;;;;;;;;;5035630;28;20651;-67
2023/12/15 11:02:22;;;;;;;45.07;13.67;;;;;;;;;;5034172;28;20045;-67
2023/12/15 11:04:48;;;;;;;47.70;13.23;;;;;;;;;;5033773;28;20140;-67
2023/12/15 11:07:18;;;;;;;44.93;13.00;;;;;;;;;;5032303;28;20403;-66
2023/12/15 11:09:44;;;;;;;39.53;13.93;;;;;;;;;;5032304;28;20028;-67
2023/12/15 11:12:18;;;;;;;48.43;12.83;;;;;;;;;;5038459;28;20536;-66
2023/12/15 11:14:43;;;;;;;38.37;12.53;;;;;;;;;;5033157;28;20060;-67
2023/12/15 11:17:10;;;;;;;38.90;13.07;;;;;;;;;;5034598;28;20072;-67
2023/12/15 11:19:36;;;;;;;41.40;12.97;;;;;;;;;;5038751;28;20368;-67
2023/12/15 11:22:05;;;;;;;47.60;14.00;;;;;;;;;;5041043;28;20037;-66
2023/12/15 11:24:30;;;;;;;38.63;12.53;;;;;;;;;;5039973;28;20025;-67
2023/12/15 11:26:55;;;;;;;32.20;11.83;;;;;;;;;;5035446;28;20685;-67
2023/12/15 11:29:20;;;;;;;45.47;12.73;;;;;;;;;;5033275;28;20041;-66
2023/12/15 11:31:46;;;;;;;42.33;10.97;;;;;;;;;;5038033;28;20389;-67
2023/12/15 11:34:31;;;;;;;36.17;13.20;;;;;;;;;;5037670;28;20436;-68
2023/12/15 11:36:56;;;;;;;45.10;14.47;;;;;;;;;;5036740;28;20084;-66
2023/12/15 11:39:21;;;;;;;43.63;13.83;;;;;;;;;;5039229;28;20021;-66
2023/12/15 11:41:48;;;;;;;43.67;12.17;;;;;;;;;;5032485;28;20107;-66
2023/12/15 11:44:15;;;;;;;42.70;12.90;;;;;;;;;;5041096;28;20025;-63
2023/12/15 11:46:40;;;;;;;46.53;14.77;;;;;;;;;;5034241;28;20078;-64
2023/12/15 11:49:06;;;;;;;41.13;13.50;;;;;;;;;;5037640;28;20412;-65
2023/12/15 11:51:31;;;;;;;40.90;13.20;;;;;;;;;;5035011;28;20087;-64
2023/12/15 11:54:00;;;;;;;47.90;12.50;;;;;;;;;;5033399;28;20370;-67
2023/12/15 11:56:26;;;;;;;45.73;14.43;;;;;;;;;;5036156;28;20394;-65
2023/12/15 11:58:52;;;;;;;43.93;13.23;;;;;;;;;;5033313;28;20025;-66
2023/12/15 12:01:17;;;;;;;44.73;12.70;;;;;;;;;;5032844;28;20056;-66
2023/12/15 12:03:43;;;;;;;41.57;12.57;;;;;;;;;;5035019;28;20036;-64
2023/12/15 12:06:08;;;;;;;56.03;13.80;;;;;;;;;;5033901;28;20036;-65
2023/12/15 12:08:34;;;;;;;42.90;12.27;;;;;;;;;;5034946;28;20432;-64
2023/12/15 12:11:00;;;;;;;41.63;12.90;;;;;;;;;;5032529;28;20033;-64
2023/12/15 12:13:39;;;;;;;41.57;12.63;;;;;;;;;;5032053;28;20090;-65
2023/12/15 12:16:04;;;;;;;41.13;12.13;;;;;;;;;;5030333;28;20107;-64
2023/12/15 12:18:30;;;;;;;44.30;13.70;;;;;;;;;;5030208;28;20025;-65
2023/12/15 12:20:56;;;;;;;55.03;13.73;;;;;;;;;;5035246;28;20048;-64
2023/12/15 12:23:27;;;;;;;40.00;12.53;;;;;;;;;;5034937;28;20036;-64
2023/12/15 12:25:52;;;;;;;52.63;14.37;;;;;;;;;;5032951;28;20056;-64
2023/12/15 12:28:21;;;;;;;44.87;13.20;;;;;;;;;;5037731;28;20646;-64
2023/12/15 12:30:47;;;;;;;47.60;14.27;;;;;;;;;;5034897;28;20087;-64
2023/12/15 12:33:13;;;;;;;45.90;13.73;;;;;;;;;;5036158;28;20481;-65
2023/12/15 12:35:38;;;;;;;43.20;13.27;;;;;;;;;;5035521;28;20033;-64
2023/12/15 12:38:03;;;;;;;40.57;12.27;;;;;;;;;;5034043;28;20037;-64
2023/12/15 12:40:29;;;;;;;46.87;12.57;;;;;;;;;;5033407;28;20033;-63
2023/12/15 12:42:57;;;;;;;43.67;12.70;;;;;;;;;;5036567;28;20037;-65
2023/12/15 12:45:22;;;;;;;43.80;13.27;;;;;;;;;;5035843;28;20477;-65
2023/12/15 12:47:49;;;;;;;38.83;11.73;;;;;;;;;;5034498;28;20156;-65
2023/12/15 12:50:15;;;;;;;42.37;13.40;;;;;;;;;;5031303;28;20033;-63
2023/12/15 12:52:40;;;;;;;40.60;11.73;;;;;;;;;;5034675;28;20075;-65
2023/12/15 12:55:06;;;;;;;37.20;11.60;;;;;;;;;;5029220;28;20068;-66
2023/12/15 12:57:32;;;;;;;44.57;12.93;;;;;;;;;;5028830;28;20043;-66
2023/12/15 12:59:57;;;;;;;35.17;11.63;;;;;;;;;;5035084;28;20628;-66
2023/12/15 13:02:23;;;;;;;43.73;12.67;;;;;;;;;;5030966;28;20419;-66
2023/12/15 13:04:50;;;;;;;40.40;12.20;;;;;;;;;;5033412;28;20037;-62
2023/12/15 13:07:15;;;;;;;36.57;11.60;;;;;;;;;;5029695;28;20029;-64
2023/12/15 13:09:40;;;;;;;37.70;11.57;;;;;;;;;;5029250;28;20113;-63
2023/12/15 13:12:05;;;;;;;43.37;11.33;;;;;;;;;;5032019;28;20037;-63
2023/12/15 13:14:31;;;;;;;38.37;11.57;;;;;;;;;;5029975;28;20037;-63
2023/12/15 13:16:56;;;;;;;44.23;12.10;;;;;;;;;;5034164;28;20508;-64
2023/12/15 13:19:21;;;;;;;35.67;11.47;;;;;;;;;;5029243;28;20069;-63
2023/12/15 13:21:47;;;;;;;41.70;11.30;;;;;;;;;;5028599;28;20041;-62
2023/12/15 13:24:12;;;;;;;36.00;11.37;;;;;;;;;;5036555;28;20025;-63
2023/12/15 13:26:37;;;;;;;39.27;11.63;;;;;;;;;;5031264;28;20045;-64
2023/12/15 13:29:03;;;;;;;38.73;10.87;;;;;;;;;;5035094;28;20402;-63
2023/12/15 13:31:29;;;;;;;31.03;11.03;;;;;;;;;;5037020;28;20030;-63
2023/12/15 13:33:54;;;;;;;34.73;10.80;;;;;;;;;;5035210;28;20034;-64
2023/12/15 13:36:19;;;;;;;36.97;11.73;;;;;;;;;;5033930;28;20129;-64
2023/12/15 13:38:48;;;;;;;35.87;11.17;;;;;;;;;;5034607;28;20573;-63
2023/12/15 13:41:13;;;;;;;38.43;11.17;;;;;;;;;;5035552;28;20025;-64
2023/12/15 13:43:39;;;;;;;30.00;10.40;;;;;;;;;;5035640;28;20037;-63
2023/12/15 13:46:05;;;;;;;29.27;10.63;;;;;;;;;;5035415;28;20124;-64
2023/12/15 13:48:30;;;;;;;35.30;10.00;;;;;;;;;;5035076;28;20025;-63
2023/12/15 13:50:56;;;;;;;30.93;9.20;;;;;;;;;;5036134;28;20064;-63
2023/12/15 13:53:21;;;;;;;28.43;10.53;;;;;;;;;;5030053;28;20096;-63
2023/12/15 13:55:47;;;;;;;33.63;9.37;;;;;;;;;;5034942;28;20032;-63
2023/12/15 13:58:12;;;;;;;26.13;9.13;;;;;;;;;;5034679;28;20061;-63
2023/12/15 14:00:37;;;;;;;30.43;9.77;;;;;;;;;;5035775;28;20384;-63
2023/12/15 14:03:03;;;;;;;28.80;9.40;;;;;;;;;;5036955;28;20083;-64
2023/12/15 14:05:28;;;;;;;29.03;8.40;;;;;;;;;;5032499;28;20029;-63
2023/12/15 14:07:53;;;;;;;24.20;8.03;;;;;;;;;;5031843;28;20124;-63
2023/12/15 14:10:19;;;;;;;31.03;8.37;;;;;;;;;;5035190;28;20107;-64